sensor_id;sensor_type;location;lat;lon;timestamp;P1;durP1;ratioP1;P2;durP2;ratioP2
20423;SDS011;10371;49.042;8.002;2022-08-04T00:00:28;2.95;;;2.70;;
20423;SDS011;10371;49.042;8.002;2022-08-04T00:01:31;2.63;;;2.42;;
20423;SDS011;10371;49.042;8.002;2022-08-04T00:03:08;2.92;;;2.50;;
20423;SDS011;10371;49.042;8.002;2022-08-04T00:04:12;2.47;;;2.28;;
20423;SDS011;10371;49.042;8.002;2022-08-04T00:08:14;2.65;;;2.45;;
20423;SDS011;10371;49.042;8.002;2022-08-04T00:10:06;2.92;;;2.70;;
20423;SDS011;10371;49.042;8.002;2022-08-04T00:11:04;2.88;;;2.67;;
20423;SDS011;10371;49.042;8.002;2022-08-04T00:12:08;2.85;;;2.65;;
20423;SDS011;10371;49.042;8.002;2022-08-04T00:13:11;2.80;;;2.60;;
20423;SDS011;10371;49.042;8.002;2022-08-04T00:14:12;2.75;;;2.55;;
20423;SDS011;10371;49.042;8.002;2022-08-04T00:15:15;2.50;;;2.40;;
20423;SDS011;10371;49.042;8.002;2022-08-04T00:16:16;2.80;;;2.60;;
20423;SDS011;10371;49.042;8.002;2022-08-04T00:17:22;2.55;;;2.40;;
20423;SDS011;10371;49.042;8.002;2022-08-04T00:18:40;2.63;;;2.50;;
20423;SDS011;10371;49.042;8.002;2022-08-04T00:19:46;2.60;;;2.42;;
20423;SDS011;10371;49.042;8.002;2022-08-04T00:20:47;4.05;;;2.55;;
20423;SDS011;10371;49.042;8.002;2022-08-04T00:21:57;2.70;;;2.50;;
20423;SDS011;10371;49.042;8.002;2022-08-04T00:23:00;2.72;;;2.50;;
20423;SDS011;10371;49.042;8.002;2022-08-04T00:24:01;2.83;;;2.63;;
20423;SDS011;10371;49.042;8.002;2022-08-04T00:25:03;2.80;;;2.60;;
20423;SDS011;10371;49.042;8.002;2022-08-04T00:26:04;2.67;;;2.58;;
20423;SDS011;10371;49.042;8.002;2022-08-04T00:27:05;3.00;;;2.80;;
20423;SDS011;10371;49.042;8.002;2022-08-04T00:28:07;2.35;;;2.20;;
20423;SDS011;10371;49.042;8.002;2022-08-04T00:29:08;2.67;;;2.50;;
20423;SDS011;10371;49.042;8.002;2022-08-04T00:30:09;2.63;;;2.42;;
20423;SDS011;10371;49.042;8.002;2022-08-04T00:31:10;2.75;;;2.55;;
20423;SDS011;10371;49.042;8.002;2022-08-04T00:32:11;2.97;;;2.78;;
20423;SDS011;10371;49.042;8.002;2022-08-04T00:33:17;2.90;;;2.70;;
20423;SDS011;10371;49.042;8.002;2022-08-04T00:34:19;2.70;;;2.50;;
20423;SDS011;10371;49.042;8.002;2022-08-04T00:35:20;3.50;;;2.40;;
20423;SDS011;10371;49.042;8.002;2022-08-04T00:36:20;2.80;;;2.60;;
20423;SDS011;10371;49.042;8.002;2022-08-04T00:37:21;2.78;;;2.58;;
20423;SDS011;10371;49.042;8.002;2022-08-04T00:38:23;2.83;;;2.63;;
20423;SDS011;10371;49.042;8.002;2022-08-04T00:39:25;2.88;;;2.53;;
20423;SDS011;10371;49.042;8.002;2022-08-04T00:40:41;2.75;;;2.58;;
20423;SDS011;10371;49.042;8.002;2022-08-04T00:43:16;2.78;;;2.58;;
20423;SDS011;10371;49.042;8.002;2022-08-04T00:44:42;2.90;;;2.40;;
20423;SDS011;10371;49.042;8.002;2022-08-04T00:53:39;4.25;;;2.70;;
20423;SDS011;10371;49.042;8.002;2022-08-04T01:01:01;3.10;;;2.90;;
20423;SDS011;10371;49.042;8.002;2022-08-04T01:02:10;3.25;;;2.80;;
20423;SDS011;10371;49.042;8.002;2022-08-04T01:03:36;3.65;;;2.75;;
20423;SDS011;10371;49.042;8.002;2022-08-04T01:04:48;2.58;;;2.35;;
20423;SDS011;10371;49.042;8.002;2022-08-04T01:07:13;3.03;;;2.55;;
20423;SDS011;10371;49.042;8.002;2022-08-04T01:08:50;3.00;;;2.67;;
20423;SDS011;10371;49.042;8.002;2022-08-04T01:14:06;3.03;;;2.70;;
20423;SDS011;10371;49.042;8.002;2022-08-04T01:15:35;2.75;;;2.50;;
20423;SDS011;10371;49.042;8.002;2022-08-04T01:16:47;2.65;;;2.45;;
20423;SDS011;10371;49.042;8.002;2022-08-04T01:17:58;2.67;;;2.47;;
20423;SDS011;10371;49.042;8.002;2022-08-04T01:19:12;2.83;;;2.63;;
20423;SDS011;10371;49.042;8.002;2022-08-04T01:20:32;2.97;;;2.70;;
20423;SDS011;10371;49.042;8.002;2022-08-04T01:26:01;2.88;;;2.67;;
20423;SDS011;10371;49.042;8.002;2022-08-04T01:27:25;2.85;;;2.65;;
20423;SDS011;10371;49.042;8.002;2022-08-04T01:28:59;2.80;;;2.60;;
20423;SDS011;10371;49.042;8.002;2022-08-04T01:30:05;2.83;;;2.63;;
20423;SDS011;10371;49.042;8.002;2022-08-04T01:31:25;3.03;;;2.83;;
20423;SDS011;10371;49.042;8.002;2022-08-04T01:32:53;2.83;;;2.60;;
20423;SDS011;10371;49.042;8.002;2022-08-04T01:33:59;2.72;;;2.53;;
20423;SDS011;10371;49.042;8.002;2022-08-04T01:35:10;2.58;;;2.38;;
20423;SDS011;10371;49.042;8.002;2022-08-04T01:36:23;2.78;;;2.58;;
20423;SDS011;10371;49.042;8.002;2022-08-04T01:38:38;2.65;;;2.45;;
20423;SDS011;10371;49.042;8.002;2022-08-04T01:39:49;2.63;;;2.42;;
20423;SDS011;10371;49.042;8.002;2022-08-04T01:40:58;3.08;;;2.80;;
20423;SDS011;10371;49.042;8.002;2022-08-04T01:42:01;2.67;;;2.50;;
20423;SDS011;10371;49.042;8.002;2022-08-04T01:43:03;2.92;;;2.72;;
20423;SDS011;10371;49.042;8.002;2022-08-04T01:44:04;2.80;;;2.50;;
20423;SDS011;10371;49.042;8.002;2022-08-04T01:45:07;3.67;;;2.50;;
20423;SDS011;10371;49.042;8.002;2022-08-04T01:46:10;2.83;;;2.63;;
20423;SDS011;10371;49.042;8.002;2022-08-04T01:47:16;2.75;;;2.47;;
20423;SDS011;10371;49.042;8.002;2022-08-04T01:48:22;3.22;;;2.92;;
20423;SDS011;10371;49.042;8.002;2022-08-04T01:49:26;3.20;;;2.35;;
20423;SDS011;10371;49.042;8.002;2022-08-04T01:50:31;3.13;;;2.83;;
20423;SDS011;10371;49.042;8.002;2022-08-04T01:51:34;2.67;;;2.47;;
20423;SDS011;10371;49.042;8.002;2022-08-04T01:52:39;2.88;;;2.67;;
20423;SDS011;10371;49.042;8.002;2022-08-04T01:53:42;2.60;;;2.40;;
20423;SDS011;10371;49.042;8.002;2022-08-04T01:54:43;3.00;;;2.80;;
20423;SDS011;10371;49.042;8.002;2022-08-04T01:55:46;2.67;;;2.47;;
20423;SDS011;10371;49.042;8.002;2022-08-04T01:56:48;2.72;;;2.50;;
20423;SDS011;10371;49.042;8.002;2022-08-04T01:57:50;2.88;;;2.67;;
20423;SDS011;10371;49.042;8.002;2022-08-04T01:58:51;3.13;;;2.80;;
20423;SDS011;10371;49.042;8.002;2022-08-04T01:59:57;3.03;;;2.53;;
20423;SDS011;10371;49.042;8.002;2022-08-04T02:01:11;2.50;;;2.40;;
20423;SDS011;10371;49.042;8.002;2022-08-04T02:02:12;2.60;;;2.40;;
20423;SDS011;10371;49.042;8.002;2022-08-04T02:03:12;2.65;;;2.45;;
20423;SDS011;10371;49.042;8.002;2022-08-04T02:04:21;2.67;;;2.47;;
20423;SDS011;10371;49.042;8.002;2022-08-04T02:05:22;2.90;;;2.70;;
20423;SDS011;10371;49.042;8.002;2022-08-04T02:11:29;3.17;;;2.97;;
20423;SDS011;10371;49.042;8.002;2022-08-04T02:15:08;4.90;;;2.92;;
20423;SDS011;10371;49.042;8.002;2022-08-04T02:20:40;3.03;;;2.83;;
20423;SDS011;10371;49.042;8.002;2022-08-04T02:21:42;2.95;;;2.60;;
20423;SDS011;10371;49.042;8.002;2022-08-04T02:22:52;2.63;;;2.40;;
20423;SDS011;10371;49.042;8.002;2022-08-04T02:24:02;2.45;;;2.35;;
20423;SDS011;10371;49.042;8.002;2022-08-04T02:25:07;2.70;;;2.50;;
20423;SDS011;10371;49.042;8.002;2022-08-04T02:26:30;2.90;;;2.70;;
20423;SDS011;10371;49.042;8.002;2022-08-04T02:27:33;3.15;;;2.92;;
20423;SDS011;10371;49.042;8.002;2022-08-04T02:30:16;2.53;;;2.38;;
20423;SDS011;10371;49.042;8.002;2022-08-04T02:31:24;2.60;;;2.40;;
20423;SDS011;10371;49.042;8.002;2022-08-04T02:32:32;2.83;;;2.63;;
20423;SDS011;10371;49.042;8.002;2022-08-04T02:33:42;2.80;;;2.60;;
20423;SDS011;10371;49.042;8.002;2022-08-04T02:34:46;2.65;;;2.47;;
20423;SDS011;10371;49.042;8.002;2022-08-04T02:35:53;2.80;;;2.60;;
20423;SDS011;10371;49.042;8.002;2022-08-04T02:36:58;2.88;;;2.67;;
20423;SDS011;10371;49.042;8.002;2022-08-04T02:39:34;2.78;;;2.53;;
20423;SDS011;10371;49.042;8.002;2022-08-04T02:40:35;2.92;;;2.72;;
20423;SDS011;10371;49.042;8.002;2022-08-04T02:41:38;2.88;;;2.67;;
20423;SDS011;10371;49.042;8.002;2022-08-04T02:42:39;2.50;;;2.40;;
20423;SDS011;10371;49.042;8.002;2022-08-04T02:43:40;3.33;;;2.92;;
20423;SDS011;10371;49.042;8.002;2022-08-04T02:44:44;2.90;;;2.70;;
20423;SDS011;10371;49.042;8.002;2022-08-04T02:45:48;2.38;;;2.28;;
20423;SDS011;10371;49.042;8.002;2022-08-04T02:46:54;4.05;;;2.55;;
20423;SDS011;10371;49.042;8.002;2022-08-04T02:47:55;2.75;;;2.55;;
20423;SDS011;10371;49.042;8.002;2022-08-04T02:48:58;3.10;;;2.80;;
20423;SDS011;10371;49.042;8.002;2022-08-04T02:50:01;2.65;;;2.55;;
20423;SDS011;10371;49.042;8.002;2022-08-04T02:51:02;3.10;;;2.90;;
20423;SDS011;10371;49.042;8.002;2022-08-04T02:52:04;2.92;;;2.72;;
20423;SDS011;10371;49.042;8.002;2022-08-04T02:53:06;2.72;;;2.53;;
20423;SDS011;10371;49.042;8.002;2022-08-04T02:54:13;3.15;;;2.70;;
20423;SDS011;10371;49.042;8.002;2022-08-04T02:55:16;2.78;;;2.58;;
20423;SDS011;10371;49.042;8.002;2022-08-04T02:56:18;2.97;;;2.78;;
20423;SDS011;10371;49.042;8.002;2022-08-04T02:57:22;2.80;;;2.60;;
20423;SDS011;10371;49.042;8.002;2022-08-04T02:58:25;3.28;;;3.08;;
20423;SDS011;10371;49.042;8.002;2022-08-04T02:59:41;2.97;;;2.70;;
20423;SDS011;10371;49.042;8.002;2022-08-04T03:00:58;3.40;;;3.05;;
20423;SDS011;10371;49.042;8.002;2022-08-04T03:01:59;2.75;;;2.58;;
20423;SDS011;10371;49.042;8.002;2022-08-04T03:03:20;2.85;;;2.55;;
20423;SDS011;10371;49.042;8.002;2022-08-04T03:04:26;3.05;;;2.58;;
20423;SDS011;10371;49.042;8.002;2022-08-04T03:05:43;2.97;;;2.78;;
20423;SDS011;10371;49.042;8.002;2022-08-04T03:08:21;3.05;;;2.80;;
20423;SDS011;10371;49.042;8.002;2022-08-04T03:13:17;3.55;;;2.97;;
20423;SDS011;10371;49.042;8.002;2022-08-04T03:19:06;3.17;;;2.97;;
20423;SDS011;10371;49.042;8.002;2022-08-04T03:26:34;3.20;;;3.00;;
20423;SDS011;10371;49.042;8.002;2022-08-04T03:36:31;3.50;;;3.22;;
20423;SDS011;10371;49.042;8.002;2022-08-04T03:39:19;3.10;;;2.80;;
20423;SDS011;10371;49.042;8.002;2022-08-04T03:45:41;2.80;;;2.60;;
20423;SDS011;10371;49.042;8.002;2022-08-04T03:50:06;3.00;;;2.70;;
20423;SDS011;10371;49.042;8.002;2022-08-04T03:59:32;3.47;;;2.70;;
20423;SDS011;10371;49.042;8.002;2022-08-04T04:00:39;3.00;;;2.75;;
20423;SDS011;10371;49.042;8.002;2022-08-04T04:04:56;3.10;;;2.90;;
20423;SDS011;10371;49.042;8.002;2022-08-04T04:06:11;3.20;;;3.00;;
20423;SDS011;10371;49.042;8.002;2022-08-04T04:10:59;3.50;;;3.30;;
20423;SDS011;10371;49.042;8.002;2022-08-04T04:12:24;3.30;;;3.00;;
20423;SDS011;10371;49.042;8.002;2022-08-04T04:15:13;3.17;;;2.85;;
20423;SDS011;10371;49.042;8.002;2022-08-04T04:19:27;3.00;;;2.80;;
20423;SDS011;10371;49.042;8.002;2022-08-04T04:26:51;3.20;;;3.00;;
20423;SDS011;10371;49.042;8.002;2022-08-04T04:29:37;3.42;;;3.15;;
20423;SDS011;10371;49.042;8.002;2022-08-04T04:33:51;3.30;;;3.10;;
20423;SDS011;10371;49.042;8.002;2022-08-04T04:36:43;3.88;;;3.50;;
20423;SDS011;10371;49.042;8.002;2022-08-04T04:40:43;3.03;;;2.83;;
20423;SDS011;10371;49.042;8.002;2022-08-04T04:46:22;3.22;;;3.03;;
20423;SDS011;10371;49.042;8.002;2022-08-04T04:47:38;3.10;;;2.90;;
20423;SDS011;10371;49.042;8.002;2022-08-04T04:48:53;3.00;;;2.80;;
20423;SDS011;10371;49.042;8.002;2022-08-04T04:50:13;3.30;;;3.10;;
20423;SDS011;10371;49.042;8.002;2022-08-04T04:51:21;3.63;;;3.28;;
20423;SDS011;10371;49.042;8.002;2022-08-04T04:54:43;3.20;;;2.90;;
20423;SDS011;10371;49.042;8.002;2022-08-04T04:55:52;3.28;;;3.08;;
20423;SDS011;10371;49.042;8.002;2022-08-04T04:58:19;3.20;;;2.90;;
20423;SDS011;10371;49.042;8.002;2022-08-04T04:59:21;3.15;;;2.95;;
20423;SDS011;10371;49.042;8.002;2022-08-04T05:00:33;3.47;;;3.00;;
20423;SDS011;10371;49.042;8.002;2022-08-04T05:03:05;3.78;;;3.45;;
20423;SDS011;10371;49.042;8.002;2022-08-04T05:05:38;3.42;;;3.03;;
20423;SDS011;10371;49.042;8.002;2022-08-04T05:07:05;3.28;;;2.80;;
20423;SDS011;10371;49.042;8.002;2022-08-04T05:13:52;2.95;;;2.75;;
20423;SDS011;10371;49.042;8.002;2022-08-04T05:14:56;3.15;;;2.88;;
20423;SDS011;10371;49.042;8.002;2022-08-04T05:16:00;3.25;;;3.03;;
20423;SDS011;10371;49.042;8.002;2022-08-04T05:18:27;3.25;;;2.97;;
20423;SDS011;10371;49.042;8.002;2022-08-04T05:19:48;2.83;;;2.63;;
20423;SDS011;10371;49.042;8.002;2022-08-04T05:20:56;3.33;;;3.03;;
20423;SDS011;10371;49.042;8.002;2022-08-04T05:22:07;3.47;;;2.88;;
20423;SDS011;10371;49.042;8.002;2022-08-04T05:23:26;3.65;;;3.10;;
20423;SDS011;10371;49.042;8.002;2022-08-04T05:24:30;3.13;;;2.92;;
20423;SDS011;10371;49.042;8.002;2022-08-04T05:25:37;3.83;;;3.40;;
20423;SDS011;10371;49.042;8.002;2022-08-04T05:26:55;3.38;;;3.08;;
20423;SDS011;10371;49.042;8.002;2022-08-04T05:28:04;3.80;;;2.83;;
20423;SDS011;10371;49.042;8.002;2022-08-04T05:29:10;3.00;;;2.80;;
20423;SDS011;10371;49.042;8.002;2022-08-04T05:30:13;3.63;;;2.90;;
20423;SDS011;10371;49.042;8.002;2022-08-04T05:31:18;3.33;;;3.03;;
20423;SDS011;10371;49.042;8.002;2022-08-04T05:32:23;3.25;;;2.72;;
20423;SDS011;10371;49.042;8.002;2022-08-04T05:33:31;3.38;;;2.88;;
20423;SDS011;10371;49.042;8.002;2022-08-04T05:34:40;3.75;;;3.38;;
20423;SDS011;10371;49.042;8.002;2022-08-04T05:35:44;3.42;;;3.13;;
20423;SDS011;10371;49.042;8.002;2022-08-04T05:36:52;3.25;;;2.92;;
20423;SDS011;10371;49.042;8.002;2022-08-04T05:37:57;3.47;;;3.17;;
20423;SDS011;10371;49.042;8.002;2022-08-04T05:39:02;5.05;;;3.25;;
20423;SDS011;10371;49.042;8.002;2022-08-04T05:40:05;3.35;;;3.03;;
20423;SDS011;10371;49.042;8.002;2022-08-04T05:41:07;2.90;;;2.67;;
20423;SDS011;10371;49.042;8.002;2022-08-04T05:42:10;2.85;;;2.65;;
20423;SDS011;10371;49.042;8.002;2022-08-04T05:43:10;3.30;;;3.05;;
20423;SDS011;10371;49.042;8.002;2022-08-04T05:44:14;4.88;;;3.28;;
20423;SDS011;10371;49.042;8.002;2022-08-04T05:45:15;3.35;;;3.05;;
20423;SDS011;10371;49.042;8.002;2022-08-04T05:46:18;3.22;;;2.92;;
20423;SDS011;10371;49.042;8.002;2022-08-04T05:47:18;3.45;;;3.15;;
20423;SDS011;10371;49.042;8.002;2022-08-04T05:48:23;3.45;;;3.25;;
20423;SDS011;10371;49.042;8.002;2022-08-04T05:49:25;2.90;;;2.70;;
20423;SDS011;10371;49.042;8.002;2022-08-04T05:50:27;3.03;;;2.70;;
20423;SDS011;10371;49.042;8.002;2022-08-04T05:51:29;3.15;;;2.95;;
20423;SDS011;10371;49.042;8.002;2022-08-04T05:52:30;2.90;;;2.70;;
20423;SDS011;10371;49.042;8.002;2022-08-04T05:53:33;3.08;;;2.85;;
20423;SDS011;10371;49.042;8.002;2022-08-04T05:54:34;3.55;;;2.72;;
20423;SDS011;10371;49.042;8.002;2022-08-04T05:55:36;3.00;;;2.80;;
20423;SDS011;10371;49.042;8.002;2022-08-04T05:56:37;3.03;;;2.72;;
20423;SDS011;10371;49.042;8.002;2022-08-04T05:57:38;3.10;;;2.85;;
20423;SDS011;10371;49.042;8.002;2022-08-04T05:58:40;3.00;;;2.80;;
20423;SDS011;10371;49.042;8.002;2022-08-04T05:59:42;3.15;;;2.83;;
20423;SDS011;10371;49.042;8.002;2022-08-04T06:00:47;3.30;;;3.00;;
20423;SDS011;10371;49.042;8.002;2022-08-04T06:01:50;3.33;;;3.13;;
20423;SDS011;10371;49.042;8.002;2022-08-04T06:02:54;3.00;;;2.80;;
20423;SDS011;10371;49.042;8.002;2022-08-04T06:03:57;4.30;;;3.00;;
20423;SDS011;10371;49.042;8.002;2022-08-04T06:05:00;2.97;;;2.67;;
20423;SDS011;10371;49.042;8.002;2022-08-04T06:06:01;3.20;;;2.70;;
20423;SDS011;10371;49.042;8.002;2022-08-04T06:07:03;2.95;;;2.75;;
20423;SDS011;10371;49.042;8.002;2022-08-04T06:08:03;2.63;;;2.42;;
20423;SDS011;10371;49.042;8.002;2022-08-04T06:09:04;3.10;;;2.58;;
20423;SDS011;10371;49.042;8.002;2022-08-04T06:10:04;2.92;;;2.72;;
20423;SDS011;10371;49.042;8.002;2022-08-04T06:11:07;3.15;;;2.85;;
20423;SDS011;10371;49.042;8.002;2022-08-04T06:12:16;2.75;;;2.55;;
20423;SDS011;10371;49.042;8.002;2022-08-04T06:13:24;3.20;;;2.90;;
20423;SDS011;10371;49.042;8.002;2022-08-04T06:14:28;3.20;;;3.00;;
20423;SDS011;10371;49.042;8.002;2022-08-04T06:15:33;3.70;;;3.22;;
20423;SDS011;10371;49.042;8.002;2022-08-04T06:16:38;2.90;;;2.67;;
20423;SDS011;10371;49.042;8.002;2022-08-04T06:17:43;3.08;;;2.88;;
20423;SDS011;10371;49.042;8.002;2022-08-04T06:18:48;5.18;;;3.20;;
20423;SDS011;10371;49.042;8.002;2022-08-04T06:19:50;4.28;;;2.92;;
20423;SDS011;10371;49.042;8.002;2022-08-04T06:20:52;2.97;;;2.78;;
20423;SDS011;10371;49.042;8.002;2022-08-04T06:21:55;3.22;;;2.92;;
20423;SDS011;10371;49.042;8.002;2022-08-04T06:22:58;3.15;;;2.95;;
20423;SDS011;10371;49.042;8.002;2022-08-04T06:24:00;2.88;;;2.67;;
20423;SDS011;10371;49.042;8.002;2022-08-04T06:25:03;3.22;;;2.90;;
20423;SDS011;10371;49.042;8.002;2022-08-04T06:26:05;4.68;;;2.83;;
20423;SDS011;10371;49.042;8.002;2022-08-04T06:27:08;3.30;;;2.80;;
20423;SDS011;10371;49.042;8.002;2022-08-04T06:28:08;3.22;;;2.95;;
20423;SDS011;10371;49.042;8.002;2022-08-04T06:29:09;3.35;;;2.78;;
20423;SDS011;10371;49.042;8.002;2022-08-04T06:30:25;3.13;;;2.83;;
20423;SDS011;10371;49.042;8.002;2022-08-04T06:31:29;3.30;;;3.00;;
20423;SDS011;10371;49.042;8.002;2022-08-04T06:32:56;5.30;;;2.90;;
20423;SDS011;10371;49.042;8.002;2022-08-04T06:34:02;2.80;;;2.60;;
20423;SDS011;10371;49.042;8.002;2022-08-04T06:35:04;2.90;;;2.53;;
20423;SDS011;10371;49.042;8.002;2022-08-04T06:36:06;2.92;;;2.60;;
20423;SDS011;10371;49.042;8.002;2022-08-04T06:37:09;3.38;;;3.08;;
20423;SDS011;10371;49.042;8.002;2022-08-04T06:38:10;3.08;;;2.80;;
20423;SDS011;10371;49.042;8.002;2022-08-04T06:39:11;2.70;;;2.50;;
20423;SDS011;10371;49.042;8.002;2022-08-04T06:40:16;2.97;;;2.78;;
20423;SDS011;10371;49.042;8.002;2022-08-04T06:41:18;2.88;;;2.67;;
20423;SDS011;10371;49.042;8.002;2022-08-04T06:42:23;2.70;;;2.53;;
20423;SDS011;10371;49.042;8.002;2022-08-04T06:43:25;3.70;;;2.85;;
20423;SDS011;10371;49.042;8.002;2022-08-04T06:44:27;2.50;;;2.40;;
20423;SDS011;10371;49.042;8.002;2022-08-04T06:45:28;2.60;;;2.40;;
20423;SDS011;10371;49.042;8.002;2022-08-04T06:46:30;3.60;;;2.92;;
20423;SDS011;10371;49.042;8.002;2022-08-04T06:47:33;3.35;;;3.05;;
20423;SDS011;10371;49.042;8.002;2022-08-04T06:48:36;3.05;;;2.60;;
20423;SDS011;10371;49.042;8.002;2022-08-04T06:49:37;2.70;;;2.50;;
20423;SDS011;10371;49.042;8.002;2022-08-04T06:50:38;3.17;;;2.72;;
20423;SDS011;10371;49.042;8.002;2022-08-04T06:51:40;3.08;;;2.80;;
20423;SDS011;10371;49.042;8.002;2022-08-04T06:52:42;4.32;;;3.10;;
20423;SDS011;10371;49.042;8.002;2022-08-04T06:53:43;3.45;;;2.85;;
20423;SDS011;10371;49.042;8.002;2022-08-04T06:54:44;3.28;;;2.92;;
20423;SDS011;10371;49.042;8.002;2022-08-04T06:55:48;3.70;;;2.90;;
20423;SDS011;10371;49.042;8.002;2022-08-04T06:56:49;3.30;;;3.00;;
20423;SDS011;10371;49.042;8.002;2022-08-04T06:57:52;2.92;;;2.72;;
20423;SDS011;10371;49.042;8.002;2022-08-04T06:58:55;3.88;;;2.90;;
20423;SDS011;10371;49.042;8.002;2022-08-04T07:00:03;3.67;;;2.80;;
20423;SDS011;10371;49.042;8.002;2022-08-04T07:01:12;4.43;;;2.80;;
20423;SDS011;10371;49.042;8.002;2022-08-04T07:02:17;5.75;;;3.15;;
20423;SDS011;10371;49.042;8.002;2022-08-04T07:03:21;4.88;;;3.10;;
20423;SDS011;10371;49.042;8.002;2022-08-04T07:04:21;3.83;;;3.10;;
20423;SDS011;10371;49.042;8.002;2022-08-04T07:05:22;3.00;;;2.80;;
20423;SDS011;10371;49.042;8.002;2022-08-04T07:06:23;5.03;;;3.20;;
20423;SDS011;10371;49.042;8.002;2022-08-04T07:07:24;3.22;;;2.90;;
20423;SDS011;10371;49.042;8.002;2022-08-04T07:08:25;4.03;;;3.15;;
20423;SDS011;10371;49.042;8.002;2022-08-04T07:09:27;5.68;;;3.25;;
20423;SDS011;10371;49.042;8.002;2022-08-04T07:10:27;4.47;;;2.88;;
20423;SDS011;10371;49.042;8.002;2022-08-04T07:11:28;3.67;;;2.90;;
20423;SDS011;10371;49.042;8.002;2022-08-04T07:12:32;3.88;;;2.97;;
20423;SDS011;10371;49.042;8.002;2022-08-04T07:13:33;4.88;;;3.05;;
20423;SDS011;10371;49.042;8.002;2022-08-04T07:14:34;2.85;;;2.65;;
20423;SDS011;10371;49.042;8.002;2022-08-04T07:15:35;3.35;;;2.45;;
20423;SDS011;10371;49.042;8.002;2022-08-04T07:16:40;4.53;;;2.78;;
20423;SDS011;10371;49.042;8.002;2022-08-04T07:17:41;4.03;;;2.92;;
20423;SDS011;10371;49.042;8.002;2022-08-04T07:18:43;4.50;;;2.97;;
20423;SDS011;10371;49.042;8.002;2022-08-04T07:19:43;4.43;;;3.13;;
20423;SDS011;10371;49.042;8.002;2022-08-04T07:20:44;3.15;;;2.85;;
20423;SDS011;10371;49.042;8.002;2022-08-04T07:21:45;4.47;;;2.97;;
20423;SDS011;10371;49.042;8.002;2022-08-04T07:22:46;2.75;;;2.55;;
20423;SDS011;10371;49.042;8.002;2022-08-04T07:23:48;3.60;;;2.53;;
20423;SDS011;10371;49.042;8.002;2022-08-04T07:24:51;5.35;;;2.58;;
20423;SDS011;10371;49.042;8.002;2022-08-04T07:25:54;4.38;;;3.03;;
20423;SDS011;10371;49.042;8.002;2022-08-04T07:26:58;4.68;;;2.90;;
20423;SDS011;10371;49.042;8.002;2022-08-04T07:27:59;4.28;;;3.00;;
20423;SDS011;10371;49.042;8.002;2022-08-04T07:28:59;3.83;;;2.80;;
20423;SDS011;10371;49.042;8.002;2022-08-04T07:29:59;5.03;;;3.08;;
20423;SDS011;10371;49.042;8.002;2022-08-04T07:31:00;3.00;;;2.80;;
20423;SDS011;10371;49.042;8.002;2022-08-04T07:32:02;4.55;;;2.63;;
20423;SDS011;10371;49.042;8.002;2022-08-04T07:33:04;3.10;;;2.72;;
20423;SDS011;10371;49.042;8.002;2022-08-04T07:34:05;3.60;;;3.28;;
20423;SDS011;10371;49.042;8.002;2022-08-04T07:35:07;3.97;;;2.97;;
20423;SDS011;10371;49.042;8.002;2022-08-04T07:36:08;2.60;;;2.40;;
20423;SDS011;10371;49.042;8.002;2022-08-04T07:37:09;5.55;;;2.83;;
20423;SDS011;10371;49.042;8.002;2022-08-04T07:38:09;3.97;;;2.90;;
20423;SDS011;10371;49.042;8.002;2022-08-04T07:39:13;3.53;;;2.97;;
20423;SDS011;10371;49.042;8.002;2022-08-04T07:40:13;3.78;;;3.03;;
20423;SDS011;10371;49.042;8.002;2022-08-04T07:41:15;4.43;;;2.97;;
20423;SDS011;10371;49.042;8.002;2022-08-04T07:42:19;3.72;;;2.80;;
20423;SDS011;10371;49.042;8.002;2022-08-04T07:43:20;3.03;;;2.70;;
20423;SDS011;10371;49.042;8.002;2022-08-04T07:44:21;4.28;;;2.90;;
20423;SDS011;10371;49.042;8.002;2022-08-04T07:45:22;2.95;;;2.63;;
20423;SDS011;10371;49.042;8.002;2022-08-04T07:46:24;5.22;;;2.78;;
20423;SDS011;10371;49.042;8.002;2022-08-04T07:47:25;3.13;;;2.92;;
20423;SDS011;10371;49.042;8.002;2022-08-04T07:48:26;3.45;;;2.75;;
20423;SDS011;10371;49.042;8.002;2022-08-04T07:49:26;4.47;;;2.92;;
20423;SDS011;10371;49.042;8.002;2022-08-04T07:50:27;3.30;;;3.00;;
20423;SDS011;10371;49.042;8.002;2022-08-04T07:51:28;3.80;;;2.88;;
20423;SDS011;10371;49.042;8.002;2022-08-04T07:52:29;2.83;;;2.60;;
20423;SDS011;10371;49.042;8.002;2022-08-04T07:53:29;4.18;;;3.08;;
20423;SDS011;10371;49.042;8.002;2022-08-04T07:54:32;3.25;;;2.95;;
20423;SDS011;10371;49.042;8.002;2022-08-04T07:55:32;3.10;;;2.90;;
20423;SDS011;10371;49.042;8.002;2022-08-04T07:56:36;5.03;;;3.03;;
20423;SDS011;10371;49.042;8.002;2022-08-04T07:57:38;3.28;;;2.97;;
20423;SDS011;10371;49.042;8.002;2022-08-04T07:58:39;3.28;;;2.90;;
20423;SDS011;10371;49.042;8.002;2022-08-04T07:59:39;3.03;;;2.70;;
20423;SDS011;10371;49.042;8.002;2022-08-04T08:00:42;3.95;;;3.03;;
20423;SDS011;10371;49.042;8.002;2022-08-04T08:01:45;3.13;;;2.40;;
20423;SDS011;10371;49.042;8.002;2022-08-04T08:02:48;3.08;;;2.80;;
20423;SDS011;10371;49.042;8.002;2022-08-04T08:03:50;3.33;;;3.03;;
20423;SDS011;10371;49.042;8.002;2022-08-04T08:04:52;4.90;;;3.10;;
20423;SDS011;10371;49.042;8.002;2022-08-04T08:05:53;2.80;;;2.60;;
20423;SDS011;10371;49.042;8.002;2022-08-04T08:06:53;3.90;;;2.95;;
20423;SDS011;10371;49.042;8.002;2022-08-04T08:07:55;3.28;;;2.85;;
20423;SDS011;10371;49.042;8.002;2022-08-04T08:08:57;3.95;;;3.17;;
20423;SDS011;10371;49.042;8.002;2022-08-04T08:09:59;3.22;;;3.00;;
20423;SDS011;10371;49.042;8.002;2022-08-04T08:11:00;3.33;;;2.92;;
20423;SDS011;10371;49.042;8.002;2022-08-04T08:12:00;5.35;;;3.40;;
20423;SDS011;10371;49.042;8.002;2022-08-04T08:13:01;3.80;;;3.10;;
20423;SDS011;10371;49.042;8.002;2022-08-04T08:14:02;5.60;;;3.65;;
20423;SDS011;10371;49.042;8.002;2022-08-04T08:15:03;3.67;;;3.38;;
20423;SDS011;10371;49.042;8.002;2022-08-04T08:16:04;3.42;;;3.22;;
20423;SDS011;10371;49.042;8.002;2022-08-04T08:17:05;4.25;;;3.10;;
20423;SDS011;10371;49.042;8.002;2022-08-04T08:18:06;4.95;;;3.55;;
20423;SDS011;10371;49.042;8.002;2022-08-04T08:19:06;5.07;;;2.85;;
20423;SDS011;10371;49.042;8.002;2022-08-04T08:20:07;3.58;;;3.10;;
20423;SDS011;10371;49.042;8.002;2022-08-04T08:21:08;3.38;;;3.17;;
20423;SDS011;10371;49.042;8.002;2022-08-04T08:22:09;4.18;;;3.30;;
20423;SDS011;10371;49.042;8.002;2022-08-04T08:23:10;3.45;;;3.15;;
20423;SDS011;10371;49.042;8.002;2022-08-04T08:24:11;3.45;;;3.03;;
20423;SDS011;10371;49.042;8.002;2022-08-04T08:25:12;3.53;;;3.17;;
20423;SDS011;10371;49.042;8.002;2022-08-04T08:26:12;3.97;;;3.15;;
20423;SDS011;10371;49.042;8.002;2022-08-04T08:27:13;5.57;;;3.45;;
20423;SDS011;10371;49.042;8.002;2022-08-04T08:28:13;4.13;;;3.72;;
20423;SDS011;10371;49.042;8.002;2022-08-04T08:29:17;3.97;;;3.05;;
20423;SDS011;10371;49.042;8.002;2022-08-04T08:30:18;4.13;;;3.72;;
20423;SDS011;10371;49.042;8.002;2022-08-04T08:31:19;3.88;;;3.53;;
20423;SDS011;10371;49.042;8.002;2022-08-04T08:32:19;3.67;;;3.30;;
20423;SDS011;10371;49.042;8.002;2022-08-04T08:33:19;4.38;;;3.40;;
20423;SDS011;10371;49.042;8.002;2022-08-04T08:34:21;3.40;;;3.10;;
20423;SDS011;10371;49.042;8.002;2022-08-04T08:35:22;4.43;;;3.30;;
20423;SDS011;10371;49.042;8.002;2022-08-04T08:36:27;3.60;;;3.30;;
20423;SDS011;10371;49.042;8.002;2022-08-04T08:37:34;4.90;;;3.35;;
20423;SDS011;10371;49.042;8.002;2022-08-04T08:38:47;3.92;;;3.13;;
20423;SDS011;10371;49.042;8.002;2022-08-04T08:39:56;3.38;;;3.08;;
20423;SDS011;10371;49.042;8.002;2022-08-04T08:42:42;5.20;;;3.25;;
20423;SDS011;10371;49.042;8.002;2022-08-04T08:46:50;3.65;;;3.35;;
20423;SDS011;10371;49.042;8.002;2022-08-04T08:54:43;5.82;;;3.63;;
20423;SDS011;10371;49.042;8.002;2022-08-04T09:03:46;3.85;;;3.55;;
20423;SDS011;10371;49.042;8.002;2022-08-04T09:06:21;3.55;;;3.17;;
20423;SDS011;10371;49.042;8.002;2022-08-04T09:09:12;3.28;;;2.97;;